sensor_id;sensor_type;location;lat;lon;timestamp;pressure;altitude;pressure_sealevel;temperature
49593;BMP280;35499;51.482;4.264;2023-05-07T00:01:30;101555.34;;;15.48
49593;BMP280;35499;51.482;4.264;2023-05-07T00:03:56;101554.50;;;15.47
49593;BMP280;35499;51.482;4.264;2023-05-07T00:06:21;101551.06;;;15.45
49593;BMP280;35499;51.482;4.264;2023-05-07T00:08:48;101560.56;;;15.45
49593;BMP280;35499;51.482;4.264;2023-05-07T00:11:13;101570.06;;;15.44
49593;BMP280;35499;51.482;4.264;2023-05-07T00:13:38;101563.22;;;15.43
49593;BMP280;35499;51.482;4.264;2023-05-07T00:16:04;101562.38;;;15.41
49593;BMP280;35499;51.482;4.264;2023-05-07T00:18:29;101565.84;;;15.42
49593;BMP280;35499;51.482;4.264;2023-05-07T00:20:55;101562.38;;;15.43
49593;BMP280;35499;51.482;4.264;2023-05-07T00:23:21;101558.91;;;15.44
49593;BMP280;35499;51.482;4.264;2023-05-07T00:25:46;101558.91;;;15.44
49593;BMP280;35499;51.482;4.264;2023-05-07T00:28:11;101551.94;;;15.46
49593;BMP280;35499;51.482;4.264;2023-05-07T00:30:36;101553.63;;;15.47
49593;BMP280;35499;51.482;4.264;2023-05-07T00:33:02;101545.91;;;15.45
49593;BMP280;35499;51.482;4.264;2023-05-07T00:35:28;101536.47;;;15.43
49593;BMP280;35499;51.482;4.264;2023-05-07T00:37:54;101543.50;;;15.38
49593;BMP280;35499;51.482;4.264;2023-05-07T00:40:20;101546.09;;;15.38
49593;BMP280;35499;51.482;4.264;2023-05-07T00:42:45;101544.34;;;15.39
49593;BMP280;35499;51.482;4.264;2023-05-07T00:45:12;101538.31;;;15.38
49593;BMP280;35499;51.482;4.264;2023-05-07T00:47:38;101536.63;;;15.37
49593;BMP280;35499;51.482;4.264;2023-05-07T00:50:05;101536.63;;;15.37
49593;BMP280;35499;51.482;4.264;2023-05-07T00:52:30;101531.44;;;15.37
49593;BMP280;35499;51.482;4.264;2023-05-07T00:54:56;101535.75;;;15.37
49593;BMP280;35499;51.482;4.264;2023-05-07T00:57:21;101535.75;;;15.37
49593;BMP280;35499;51.482;4.264;2023-05-07T00:59:48;101533.16;;;15.37
49593;BMP280;35499;51.482;4.264;2023-05-07T01:02:13;101521.94;;;15.38
49593;BMP280;35499;51.482;4.264;2023-05-07T01:04:38;101530.56;;;15.37
49593;BMP280;35499;51.482;4.264;2023-05-07T01:07:04;101517.63;;;15.38
49593;BMP280;35499;51.482;4.264;2023-05-07T01:09:30;101516.78;;;15.36
49593;BMP280;35499;51.482;4.264;2023-05-07T01:11:56;101509.09;;;15.33
49593;BMP280;35499;51.482;4.264;2023-05-07T01:14:22;101505.75;;;15.28
49593;BMP280;35499;51.482;4.264;2023-05-07T01:16:48;101505.75;;;15.28
49593;BMP280;35499;51.482;4.264;2023-05-07T01:19:17;101501.44;;;15.29
49593;BMP280;35499;51.482;4.264;2023-05-07T01:21:46;101505.78;;;15.27
49593;BMP280;35499;51.482;4.264;2023-05-07T01:24:12;101500.59;;;15.28
49593;BMP280;35499;51.482;4.264;2023-05-07T01:26:39;101501.47;;;15.27
49593;BMP280;35499;51.482;4.264;2023-05-07T01:29:05;101499.72;;;15.28
49593;BMP280;35499;51.482;4.264;2023-05-07T01:31:30;101500.59;;;15.28
49593;BMP280;35499;51.482;4.264;2023-05-07T01:33:58;101504.91;;;15.28
49593;BMP280;35499;51.482;4.264;2023-05-07T01:36:24;101510.03;;;15.29
49593;BMP280;35499;51.482;4.264;2023-05-07T01:38:52;101507.44;;;15.29
49593;BMP280;35499;51.482;4.264;2023-05-07T01:41:19;101509.22;;;15.29
49593;BMP280;35499;51.482;4.264;2023-05-07T01:43:44;101516.16;;;15.25
49593;BMP280;35499;51.482;4.264;2023-05-07T01:46:11;101516.97;;;15.29
49593;BMP280;35499;51.482;4.264;2023-05-07T01:48:37;101511.00;;;15.25
49593;BMP280;35499;51.482;4.264;2023-05-07T01:51:02;101514.38;;;15.29
49593;BMP280;35499;51.482;4.264;2023-05-07T01:53:28;101516.03;;;15.31
49593;BMP280;35499;51.482;4.264;2023-05-07T01:55:54;101519.47;;;15.32
49593;BMP280;35499;51.482;4.264;2023-05-07T01:58:19;101515.16;;;15.32
49593;BMP280;35499;51.482;4.264;2023-05-07T02:00:44;101509.97;;;15.32
49593;BMP280;35499;51.482;4.264;2023-05-07T02:03:10;101514.31;;;15.32
49593;BMP280;35499;51.482;4.264;2023-05-07T02:05:35;101511.72;;;15.30
49593;BMP280;35499;51.482;4.264;2023-05-07T02:08:00;101507.50;;;15.28
49593;BMP280;35499;51.482;4.264;2023-05-07T02:10:26;101512.72;;;15.25
49593;BMP280;35499;51.482;4.264;2023-05-07T02:12:51;101507.59;;;15.23
49593;BMP280;35499;51.482;4.264;2023-05-07T02:15:16;101506.75;;;15.23
49593;BMP280;35499;51.482;4.264;2023-05-07T02:18:03;101515.38;;;15.22
49593;BMP280;35499;51.482;4.264;2023-05-07T02:20:28;101508.47;;;15.24
49593;BMP280;35499;51.482;4.264;2023-05-07T02:22:53;101506.69;;;15.24
49593;BMP280;35499;51.482;4.264;2023-05-07T02:25:19;101516.16;;;15.25
49593;BMP280;35499;51.482;4.264;2023-05-07T02:27:44;101519.59;;;15.27
49593;BMP280;35499;51.482;4.264;2023-05-07T02:30:10;101524.72;;;15.29
49593;BMP280;35499;51.482;4.264;2023-05-07T02:32:35;101529.84;;;15.30
49593;BMP280;35499;51.482;4.264;2023-05-07T02:35:00;101525.56;;;15.29
49593;BMP280;35499;51.482;4.264;2023-05-07T02:37:26;101522.16;;;15.29
49593;BMP280;35499;51.482;4.264;2023-05-07T02:39:51;101520.38;;;15.29
49593;BMP280;35499;51.482;4.264;2023-05-07T02:42:16;101523.81;;;15.30
49593;BMP280;35499;51.482;4.264;2023-05-07T02:44:41;101526.47;;;15.28
49593;BMP280;35499;51.482;4.264;2023-05-07T02:47:07;101527.34;;;15.27
49593;BMP280;35499;51.482;4.264;2023-05-07T02:49:33;101523.91;;;15.27
49593;BMP280;35499;51.482;4.264;2023-05-07T02:51:59;101527.34;;;15.27
49593;BMP280;35499;51.482;4.264;2023-05-07T02:54:24;101522.16;;;15.27
49593;BMP280;35499;51.482;4.264;2023-05-07T02:56:49;101524.75;;;15.27
49593;BMP280;35499;51.482;4.264;2023-05-07T02:59:15;101524.78;;;15.26
49593;BMP280;35499;51.482;4.264;2023-05-07T03:01:40;101521.28;;;15.28
49593;BMP280;35499;51.482;4.264;2023-05-07T03:04:06;101521.28;;;15.28
49593;BMP280;35499;51.482;4.264;2023-05-07T03:06:32;101525.56;;;15.29
49593;BMP280;35499;51.482;4.264;2023-05-07T03:08:57;101529.84;;;15.30
49593;BMP280;35499;51.482;4.264;2023-05-07T03:11:22;101526.38;;;15.31
49593;BMP280;35499;51.482;4.264;2023-05-07T03:13:47;101523.81;;;15.31
49593;BMP280;35499;51.482;4.264;2023-05-07T03:16:15;101528.09;;;15.32
49593;BMP280;35499;51.482;4.264;2023-05-07T03:18:40;101530.72;;;15.31
49593;BMP280;35499;51.482;4.264;2023-05-07T03:21:05;101522.94;;;15.31
49593;BMP280;35499;51.482;4.264;2023-05-07T03:23:31;101521.22;;;15.31
49593;BMP280;35499;51.482;4.264;2023-05-07T03:25:56;101522.91;;;15.32
49593;BMP280;35499;51.482;4.264;2023-05-07T03:28:21;101523.78;;;15.33
49593;BMP280;35499;51.482;4.264;2023-05-07T03:30:46;101519.44;;;15.33
49593;BMP280;35499;51.482;4.264;2023-05-07T03:33:12;101531.47;;;15.34
49593;BMP280;35499;51.482;4.264;2023-05-07T03:35:37;101527.22;;;15.33
49593;BMP280;35499;51.482;4.264;2023-05-07T03:38:02;101516.00;;;15.33
49593;BMP280;35499;51.482;4.264;2023-05-07T03:40:27;101516.88;;;15.33
49593;BMP280;35499;51.482;4.264;2023-05-07T03:42:53;101513.44;;;15.33
49593;BMP280;35499;51.482;4.264;2023-05-07T03:45:18;101516.03;;;15.31
49593;BMP280;35499;51.482;4.264;2023-05-07T03:47:43;101524.72;;;15.29
49593;BMP280;35499;51.482;4.264;2023-05-07T03:50:09;101525.63;;;15.28
49593;BMP280;35499;51.482;4.264;2023-05-07T03:52:35;101521.34;;;15.25
49593;BMP280;35499;51.482;4.264;2023-05-07T03:55:00;101524.75;;;15.27
49593;BMP280;35499;51.482;4.264;2023-05-07T03:57:26;101519.63;;;15.24
49593;BMP280;35499;51.482;4.264;2023-05-07T03:59:51;101527.38;;;15.24
49593;BMP280;35499;51.482;4.264;2023-05-07T04:02:16;101527.44;;;15.23
49593;BMP280;35499;51.482;4.264;2023-05-07T04:04:41;101536.06;;;15.23
49593;BMP280;35499;51.482;4.264;2023-05-07T04:07:07;101533.47;;;15.23
49593;BMP280;35499;51.482;4.264;2023-05-07T04:09:32;101532.63;;;15.23
49593;BMP280;35499;51.482;4.264;2023-05-07T04:11:57;101532.63;;;15.23
49593;BMP280;35499;51.482;4.264;2023-05-07T04:14:23;101537.75;;;15.24
49593;BMP280;35499;51.482;4.264;2023-05-07T04:16:48;101534.38;;;15.22
49593;BMP280;35499;51.482;4.264;2023-05-07T04:19:13;101542.97;;;15.23
49593;BMP280;35499;51.482;4.264;2023-05-07T04:21:38;101530.03;;;15.23
49593;BMP280;35499;51.482;4.264;2023-05-07T04:24:04;101539.50;;;15.24
49593;BMP280;35499;51.482;4.264;2023-05-07T04:26:30;101537.81;;;15.23
49593;BMP280;35499;51.482;4.264;2023-05-07T04:28:55;101539.53;;;15.22
49593;BMP280;35499;51.482;4.264;2023-05-07T04:31:20;101538.66;;;15.23
49593;BMP280;35499;51.482;4.264;2023-05-07T04:33:46;101538.66;;;15.23
49593;BMP280;35499;51.482;4.264;2023-05-07T04:36:11;101533.47;;;15.23
49593;BMP280;35499;51.482;4.264;2023-05-07T04:38:36;101538.66;;;15.23
49593;BMP280;35499;51.482;4.264;2023-05-07T04:41:03;101545.47;;;15.27
49593;BMP280;35499;51.482;4.264;2023-05-07T04:43:29;101536.81;;;15.28
49593;BMP280;35499;51.482;4.264;2023-05-07T04:45:54;101535.91;;;15.29
49593;BMP280;35499;51.482;4.264;2023-05-07T04:48:19;101536.75;;;15.31
49593;BMP280;35499;51.482;4.264;2023-05-07T04:50:51;101541.91;;;15.33
49593;BMP280;35499;51.482;4.264;2023-05-07T04:53:17;101544.47;;;15.33
49593;BMP280;35499;51.482;4.264;2023-05-07T04:55:43;101541.00;;;15.34
49593;BMP280;35499;51.482;4.264;2023-05-07T04:58:09;101548.72;;;15.35
49593;BMP280;35499;51.482;4.264;2023-05-07T05:00:34;101540.94;;;15.37
49593;BMP280;35499;51.482;4.264;2023-05-07T05:03:00;101553.00;;;15.38
49593;BMP280;35499;51.482;4.264;2023-05-07T05:05:25;101554.69;;;15.39
49593;BMP280;35499;51.482;4.264;2023-05-07T05:07:50;101557.28;;;15.39
49593;BMP280;35499;51.482;4.264;2023-05-07T05:10:17;101555.56;;;15.39
49593;BMP280;35499;51.482;4.264;2023-05-07T05:12:43;101555.56;;;15.39
49593;BMP280;35499;51.482;4.264;2023-05-07T05:15:08;101562.41;;;15.40
49593;BMP280;35499;51.482;4.264;2023-05-07T05:17:35;101562.41;;;15.40
49593;BMP280;35499;51.482;4.264;2023-05-07T05:20:01;101562.38;;;15.41
49593;BMP280;35499;51.482;4.264;2023-05-07T05:22:27;101563.22;;;15.43
49593;BMP280;35499;51.482;4.264;2023-05-07T05:24:54;101561.44;;;15.45
49593;BMP280;35499;51.482;4.264;2023-05-07T05:27:20;101564.84;;;15.47
49593;BMP280;35499;51.482;4.264;2023-05-07T05:29:45;101567.41;;;15.49
49593;BMP280;35499;51.482;4.264;2023-05-07T05:32:10;101567.34;;;15.50
49593;BMP280;35499;51.482;4.264;2023-05-07T05:34:35;101572.44;;;15.55
49593;BMP280;35499;51.482;4.264;2023-05-07T05:37:01;101566.34;;;15.57
49593;BMP280;35499;51.482;4.264;2023-05-07T05:39:26;101578.28;;;15.64
49593;BMP280;35499;51.482;4.264;2023-05-07T05:41:51;101575.59;;;15.68
49593;BMP280;35499;51.482;4.264;2023-05-07T05:44:17;101580.56;;;15.75
49593;BMP280;35499;51.482;4.264;2023-05-07T05:46:42;101576.03;;;15.85
49593;BMP280;35499;51.482;4.264;2023-05-07T05:49:07;101574.94;;;15.94
49593;BMP280;35499;51.482;4.264;2023-05-07T05:51:33;101579.03;;;16.04
49593;BMP280;35499;51.482;4.264;2023-05-07T05:53:58;101577.13;;;16.11
49593;BMP280;35499;51.482;4.264;2023-05-07T05:56:24;101573.44;;;16.20
49593;BMP280;35499;51.482;4.264;2023-05-07T05:58:49;101574.91;;;16.30
49593;BMP280;35499;51.482;4.264;2023-05-07T06:01:15;101573.84;;;16.38
49593;BMP280;35499;51.482;4.264;2023-05-07T06:03:40;101579.69;;;16.45
49593;BMP280;35499;51.482;4.264;2023-05-07T06:06:05;101566.59;;;16.49
49593;BMP280;35499;51.482;4.264;2023-05-07T06:08:31;101573.38;;;16.54
49593;BMP280;35499;51.482;4.264;2023-05-07T06:10:56;101578.41;;;16.60
49593;BMP280;35499;51.482;4.264;2023-05-07T06:13:22;101577.38;;;16.65
49593;BMP280;35499;51.482;4.264;2023-05-07T06:15:48;101583.25;;;16.73
49593;BMP280;35499;51.482;4.264;2023-05-07T06:18:14;101589.09;;;16.80
49593;BMP280;35499;51.482;4.264;2023-05-07T06:20:39;101579.38;;;16.87
49593;BMP280;35499;51.482;4.264;2023-05-07T06:23:04;101586.22;;;16.91
49593;BMP280;35499;51.482;4.264;2023-05-07T06:25:30;101581.78;;;16.95
49593;BMP280;35499;51.482;4.264;2023-05-07T06:27:55;101587.75;;;16.98
49593;BMP280;35499;51.482;4.264;2023-05-07T06:30:20;101585.91;;;17.02
49593;BMP280;35499;51.482;4.264;2023-05-07T06:32:46;101592.72;;;17.05
49593;BMP280;35499;51.482;4.264;2023-05-07T06:35:11;101579.59;;;17.10
49593;BMP280;35499;51.482;4.264;2023-05-07T06:37:36;101583.78;;;17.15
49593;BMP280;35499;51.482;4.264;2023-05-07T06:40:04;101590.56;;;17.19
49593;BMP280;35499;51.482;4.264;2023-05-07T06:42:30;101589.47;;;17.27
49593;BMP280;35499;51.482;4.264;2023-05-07T06:44:55;101595.41;;;17.31
49593;BMP280;35499;51.482;4.264;2023-05-07T06:47:21;101588.34;;;17.36
49593;BMP280;35499;51.482;4.264;2023-05-07T06:49:46;101596.88;;;17.39
49593;BMP280;35499;51.482;4.264;2023-05-07T06:52:11;101591.63;;;17.42
49593;BMP280;35499;51.482;4.264;2023-05-07T06:54:36;101601.75;;;17.49
49593;BMP280;35499;51.482;4.264;2023-05-07T06:57:02;101599.03;;;17.54
49593;BMP280;35499;51.482;4.264;2023-05-07T06:59:27;101599.69;;;17.60
49593;BMP280;35499;51.482;4.264;2023-05-07T07:01:52;101593.44;;;17.67
49593;BMP280;35499;51.482;4.264;2023-05-07T07:04:17;101597.34;;;17.79
49593;BMP280;35499;51.482;4.264;2023-05-07T07:06:43;101597.72;;;17.96
49593;BMP280;35499;51.482;4.264;2023-05-07T07:09:08;101596.13;;;18.17
49593;BMP280;35499;51.482;4.264;2023-05-07T07:11:33;101607.66;;;18.34
49593;BMP280;35499;51.482;4.264;2023-05-07T07:13:59;101595.09;;;18.46
49593;BMP280;35499;51.482;4.264;2023-05-07T07:16:24;101589.63;;;18.54
49593;BMP280;35499;51.482;4.264;2023-05-07T07:18:50;101601.59;;;18.59
49593;BMP280;35499;51.482;4.264;2023-05-07T07:21:15;101596.19;;;18.65
49593;BMP280;35499;51.482;4.264;2023-05-07T07:23:40;101595.88;;;18.74
49593;BMP280;35499;51.482;4.264;2023-05-07T07:26:06;101606.09;;;18.80
49593;BMP280;35499;51.482;4.264;2023-05-07T07:28:31;101603.44;;;18.81
49593;BMP280;35499;51.482;4.264;2023-05-07T07:30:57;101613.00;;;18.81
49593;BMP280;35499;51.482;4.264;2023-05-07T07:33:22;101612.25;;;18.77
49593;BMP280;35499;51.482;4.264;2023-05-07T07:35:47;101616.63;;;18.77
49593;BMP280;35499;51.482;4.264;2023-05-07T07:38:12;101613.94;;;18.78
49593;BMP280;35499;51.482;4.264;2023-05-07T07:40:38;101625.03;;;18.83
49593;BMP280;35499;51.482;4.264;2023-05-07T07:43:04;101618.84;;;18.87
49593;BMP280;35499;51.482;4.264;2023-05-07T07:45:30;101622.13;;;18.92
49593;BMP280;35499;51.482;4.264;2023-05-07T07:47:55;101614.91;;;18.99
49593;BMP280;35499;51.482;4.264;2023-05-07T07:50:20;101615.09;;;19.17
49593;BMP280;35499;51.482;4.264;2023-05-07T07:52:46;101610.34;;;19.51
49593;BMP280;35499;51.482;4.264;2023-05-07T07:55:11;101607.97;;;19.88
49593;BMP280;35499;51.482;4.264;2023-05-07T07:57:37;101621.06;;;20.28
49593;BMP280;35499;51.482;4.264;2023-05-07T08:00:02;101609.97;;;20.64
49593;BMP280;35499;51.482;4.264;2023-05-07T08:02:28;101608.47;;;20.97
49593;BMP280;35499;51.482;4.264;2023-05-07T08:04:53;101605.03;;;21.34
49593;BMP280;35499;51.482;4.264;2023-05-07T08:07:19;101604.94;;;21.72
49593;BMP280;35499;51.482;4.264;2023-05-07T08:09:46;101600.94;;;22.36
49593;BMP280;35499;51.482;4.264;2023-05-07T08:12:12;101604.91;;;23.09
49593;BMP280;35499;51.482;4.264;2023-05-07T08:14:37;101595.78;;;23.47
49593;BMP280;35499;51.482;4.264;2023-05-07T08:17:02;101600.91;;;23.65
49593;BMP280;35499;51.482;4.264;2023-05-07T08:19:28;101600.06;;;23.80
49593;BMP280;35499;51.482;4.264;2023-05-07T08:21:53;101595.72;;;23.79
49593;BMP280;35499;51.482;4.264;2023-05-07T08:24:19;101603.34;;;23.68
49593;BMP280;35499;51.482;4.264;2023-05-07T08:26:44;101606.31;;;23.62
49593;BMP280;35499;51.482;4.264;2023-05-07T08:29:10;101612.72;;;23.72
49593;BMP280;35499;51.482;4.264;2023-05-07T08:31:35;101615.34;;;23.72
49593;BMP280;35499;51.482;4.264;2023-05-07T08:34:01;101608.03;;;23.93
49593;BMP280;35499;51.482;4.264;2023-05-07T08:36:26;101612.75;;;24.02
49593;BMP280;35499;51.482;4.264;2023-05-07T08:38:52;101617.88;;;24.05
49593;BMP280;35499;51.482;4.264;2023-05-07T08:41:18;101615.13;;;24.06
49593;BMP280;35499;51.482;4.264;2023-05-07T08:43:47;101613.00;;;24.13
49593;BMP280;35499;51.482;4.264;2023-05-07T08:46:19;101611.75;;;24.04
49593;BMP280;35499;51.482;4.264;2023-05-07T08:48:45;101619.91;;;24.00
49593;BMP280;35499;51.482;4.264;2023-05-07T08:51:13;101623.25;;;24.02
49593;BMP280;35499;51.482;4.264;2023-05-07T08:53:40;101621.53;;;23.86
49593;BMP280;35499;51.482;4.264;2023-05-07T08:56:09;101620.47;;;24.20
49593;BMP280;35499;51.482;4.264;2023-05-07T08:58:34;101624.72;;;24.36
49593;BMP280;35499;51.482;4.264;2023-05-07T09:04:33;101625.06;;;24.60
49593;BMP280;35499;51.482;4.264;2023-05-07T09:06:59;101625.22;;;24.58
49593;BMP280;35499;51.482;4.264;2023-05-07T09:09:32;101630.81;;;24.52
49593;BMP280;35499;51.482;4.264;2023-05-07T09:11:57;101638.94;;;24.47
49593;BMP280;35499;51.482;4.264;2023-05-07T09:14:27;101634.25;;;24.39
49593;BMP280;35499;51.482;4.264;2023-05-07T09:16:52;101637.31;;;24.16
49593;BMP280;35499;51.482;4.264;2023-05-07T09:19:25;101641.19;;;23.79
49593;BMP280;35499;51.482;4.264;2023-05-07T09:22:03;101641.94;;;23.51
49593;BMP280;35499;51.482;4.264;2023-05-07T09:24:29;101640.94;;;23.37
49593;BMP280;35499;51.482;4.264;2023-05-07T09:26:59;101643.13;;;23.13
49593;BMP280;35499;51.482;4.264;2023-05-07T09:29:26;101644.94;;;22.96
49593;BMP280;35499;51.482;4.264;2023-05-07T09:31:54;101647.31;;;22.83
49593;BMP280;35499;51.482;4.264;2023-05-07T09:34:19;101648.25;;;22.66
49593;BMP280;35499;51.482;4.264;2023-05-07T09:36:44;101653.44;;;22.49
49593;BMP280;35499;51.482;4.264;2023-05-07T09:39:10;101653.06;;;22.40
49593;BMP280;35499;51.482;4.264;2023-05-07T09:41:43;101656.31;;;22.27
49593;BMP280;35499;51.482;4.264;2023-05-07T09:44:09;101661.03;;;22.21
49593;BMP280;35499;51.482;4.264;2023-05-07T09:46:36;101656.78;;;22.18
49593;BMP280;35499;51.482;4.264;2023-05-07T09:49:02;101654.09;;;22.20
49593;BMP280;35499;51.482;4.264;2023-05-07T09:51:44;101659.56;;;22.15
49593;BMP280;35499;51.482;4.264;2023-05-07T09:54:11;101658.53;;;22.18
49593;BMP280;35499;51.482;4.264;2023-05-07T09:56:37;101656.78;;;22.18
49593;BMP280;35499;51.482;4.264;2023-05-07T09:59:03;101663.34;;;22.26
49593;BMP280;35499;51.482;4.264;2023-05-07T10:01:30;101655.28;;;22.31
49593;BMP280;35499;51.482;4.264;2023-05-07T10:03:57;101660.19;;;22.37
49593;BMP280;35499;51.482;4.264;2023-05-07T10:06:24;101660.34;;;22.34
49593;BMP280;35499;51.482;4.264;2023-05-07T10:08:51;101658.94;;;22.27
49593;BMP280;35499;51.482;4.264;2023-05-07T10:11:18;101660.50;;;22.31
49593;BMP280;35499;51.482;4.264;2023-05-07T10:13:43;101660.13;;;22.38
49593;BMP280;35499;51.482;4.264;2023-05-07T10:16:09;101664.16;;;22.45
49593;BMP280;35499;51.482;4.264;2023-05-07T10:18:34;101662.75;;;22.38
49593;BMP280;35499;51.482;4.264;2023-05-07T10:23:31;101662.00;;;22.18
49593;BMP280;35499;51.482;4.264;2023-05-07T10:25:57;101675.25;;;22.15
49593;BMP280;35499;51.482;4.264;2023-05-07T10:28:23;101671.09;;;22.11
49593;BMP280;35499;51.482;4.264;2023-05-07T10:33:24;101674.97;;;22.21
49593;BMP280;35499;51.482;4.264;2023-05-07T10:35:50;101688.13;;;22.20
49593;BMP280;35499;51.482;4.264;2023-05-07T10:38:16;101690.66;;;22.21
49593;BMP280;35499;51.482;4.264;2023-05-07T10:40:41;101686.34;;;22.20
49593;BMP280;35499;51.482;4.264;2023-05-07T10:43:07;101691.38;;;22.24
49593;BMP280;35499;51.482;4.264;2023-05-07T10:45:33;101691.38;;;22.24
49593;BMP280;35499;51.482;4.264;2023-05-07T10:48:12;101692.28;;;22.23
49593;BMP280;35499;51.482;4.264;2023-05-07T10:50:42;101700.81;;;22.27
49593;BMP280;35499;51.482;4.264;2023-05-07T10:55:49;101711.16;;;22.30
49593;BMP280;35499;51.482;4.264;2023-05-07T11:00:50;101699.00;;;22.29
49593;BMP280;35499;51.482;4.264;2023-05-07T11:03:16;101701.13;;;22.21
49593;BMP280;35499;51.482;4.264;2023-05-07T11:05:42;101704.22;;;22.29
49593;BMP280;35499;51.482;4.264;2023-05-07T11:08:08;101710.38;;;22.28
49593;BMP280;35499;51.482;4.264;2023-05-07T11:10:54;101707.34;;;22.19
49593;BMP280;35499;51.482;4.264;2023-05-07T11:16:17;101706.63;;;22.33
49593;BMP280;35499;51.482;4.264;2023-05-07T11:18:47;101713.34;;;22.39
49593;BMP280;35499;51.482;4.264;2023-05-07T11:21:31;101705.59;;;22.19
49593;BMP280;35499;51.482;4.264;2023-05-07T11:23:57;101711.88;;;22.15
49593;BMP280;35499;51.482;4.264;2023-05-07T11:26:24;101708.34;;;22.16
49593;BMP280;35499;51.482;4.264;2023-05-07T11:28:50;101706.94;;;22.09
49593;BMP280;35499;51.482;4.264;2023-05-07T11:31:20;101705.09;;;22.11
49593;BMP280;35499;51.482;4.264;2023-05-07T11:33:46;101709.78;;;22.05
49593;BMP280;35499;51.482;4.264;2023-05-07T11:36:12;101716.94;;;22.02
49593;BMP280;35499;51.482;4.264;2023-05-07T11:38:37;101720.25;;;22.05
49593;BMP280;35499;51.482;4.264;2023-05-07T11:41:04;101716.34;;;22.13
49593;BMP280;35499;51.482;4.264;2023-05-07T11:43:30;101720.38;;;22.02
49593;BMP280;35499;51.482;4.264;2023-05-07T11:46:05;101717.84;;;22.01
49593;BMP280;35499;51.482;4.264;2023-05-07T11:48:30;101725.59;;;22.02
49593;BMP280;35499;51.482;4.264;2023-05-07T11:53:37;101727.56;;;21.97
49593;BMP280;35499;51.482;4.264;2023-05-07T11:56:10;101729.16;;;22.01
49593;BMP280;35499;51.482;4.264;2023-05-07T11:58:36;101726.59;;;22.00
49593;BMP280;35499;51.482;4.264;2023-05-07T12:01:02;101729.28;;;21.98
49593;BMP280;35499;51.482;4.264;2023-05-07T12:03:27;101718.84;;;21.79
49593;BMP280;35499;51.482;4.264;2023-05-07T12:05:53;101730.63;;;21.69
49593;BMP280;35499;51.482;4.264;2023-05-07T12:08:19;101737.84;;;21.64
49593;BMP280;35499;51.482;4.264;2023-05-07T12:10:47;101728.72;;;21.54
49593;BMP280;35499;51.482;4.264;2023-05-07T12:13:19;101719.88;;;21.57
49593;BMP280;35499;51.482;4.264;2023-05-07T12:15:46;101724.97;;;21.60
49593;BMP280;35499;51.482;4.264;2023-05-07T12:18:15;101736.13;;;21.63
49593;BMP280;35499;51.482;4.264;2023-05-07T12:20:40;101740.25;;;21.69
49593;BMP280;35499;51.482;4.264;2023-05-07T12:23:06;101734.47;;;21.80
49593;BMP280;35499;51.482;4.264;2023-05-07T12:25:37;101729.34;;;21.97
49593;BMP280;35499;51.482;4.264;2023-05-07T12:28:03;101727.38;;;22.20
49593;BMP280;35499;51.482;4.264;2023-05-07T12:30:36;101731.44;;;22.43
49593;BMP280;35499;51.482;4.264;2023-05-07T12:33:02;101728.84;;;22.61
49593;BMP280;35499;51.482;4.264;2023-05-07T12:35:32;101724.47;;;22.78
49593;BMP280;35499;51.482;4.264;2023-05-07T12:38:00;101724.72;;;22.90
49593;BMP280;35499;51.482;4.264;2023-05-07T12:40:36;101714.75;;;23.13
49593;BMP280;35499;51.482;4.264;2023-05-07T12:43:02;101721.19;;;23.41
49593;BMP280;35499;51.482;4.264;2023-05-07T12:45:27;101717.00;;;23.68
49593;BMP280;35499;51.482;4.264;2023-05-07T12:47:53;101714.59;;;23.81
49593;BMP280;35499;51.482;4.264;2023-05-07T12:50:18;101716.78;;;23.88
49593;BMP280;35499;51.482;4.264;2023-05-07T12:52:45;101722.94;;;24.04
49593;BMP280;35499;51.482;4.264;2023-05-07T12:55:14;101723.72;;;24.21
49593;BMP280;35499;51.482;4.264;2023-05-07T12:57:48;101721.44;;;24.30
49593;BMP280;35499;51.482;4.264;2023-05-07T13:00:14;101719.88;;;24.26
49593;BMP280;35499;51.482;4.264;2023-05-07T13:02:42;101722.75;;;24.37
49593;BMP280;35499;51.482;4.264;2023-05-07T13:05:09;101732.09;;;24.42
49593;BMP280;35499;51.482;4.264;2023-05-07T13:07:34;101726.56;;;24.46
49593;BMP280;35499;51.482;4.264;2023-05-07T13:10:00;101721.19;;;24.64
49593;BMP280;35499;51.482;4.264;2023-05-07T13:12:25;101716.75;;;24.80
49593;BMP280;35499;51.482;4.264;2023-05-07T13:14:50;101718.00;;;25.02
49593;BMP280;35499;51.482;4.264;2023-05-07T13:17:16;101718.16;;;25.14
49593;BMP280;35499;51.482;4.264;2023-05-07T13:19:41;101715.94;;;25.22
49593;BMP280;35499;51.482;4.264;2023-05-07T13:22:06;101725.44;;;25.24
49593;BMP280;35499;51.482;4.264;2023-05-07T13:24:32;101734.84;;;25.42
49593;BMP280;35499;51.482;4.264;2023-05-07T13:26:57;101725.00;;;25.59
49593;BMP280;35499;51.482;4.264;2023-05-07T13:29:22;101729.06;;;25.78
49593;BMP280;35499;51.482;4.264;2023-05-07T13:31:54;101726.13;;;25.82
49593;BMP280;35499;51.482;4.264;2023-05-07T13:34:20;101733.78;;;25.86
49593;BMP280;35499;51.482;4.264;2023-05-07T13:36:45;101730.50;;;25.83
49593;BMP280;35499;51.482;4.264;2023-05-07T13:39:11;101727.47;;;25.75
49593;BMP280;35499;51.482;4.264;2023-05-07T13:41:36;101735.91;;;25.66
49593;BMP280;35499;51.482;4.264;2023-05-07T13:44:01;101731.41;;;25.55
49593;BMP280;35499;51.482;4.264;2023-05-07T13:46:27;101729.72;;;25.40
49593;BMP280;35499;51.482;4.264;2023-05-07T13:48:52;101733.34;;;25.38
49593;BMP280;35499;51.482;4.264;2023-05-07T13:51:17;101737.28;;;25.31
49593;BMP280;35499;51.482;4.264;2023-05-07T13:53:43;101734.25;;;25.23
49593;BMP280;35499;51.482;4.264;2023-05-07T13:56:08;101745.47;;;25.12
49593;BMP280;35499;51.482;4.264;2023-05-07T13:58:33;101740.66;;;25.04
49593;BMP280;35499;51.482;4.264;2023-05-07T14:00:59;101741.00;;;24.98
49593;BMP280;35499;51.482;4.264;2023-05-07T14:03:24;101744.75;;;24.94
49593;BMP280;35499;51.482;4.264;2023-05-07T14:05:49;101737.38;;;24.86
49593;BMP280;35499;51.482;4.264;2023-05-07T14:08:15;101743.88;;;24.80
49593;BMP280;35499;51.482;4.264;2023-05-07T14:10:40;101734.56;;;24.75